createdAt,value
2018-12-04T00:00:00.336Z,10.40
2018-12-04T00:02:27.823Z,11.80
2018-12-04T00:04:55.339Z,13.40
2018-12-04T00:07:22.789Z,15.13
2018-12-04T00:09:50.239Z,17.23
2018-12-04T00:12:17.697Z,19.53
2018-12-04T00:14:45.255Z,20.07
2018-12-04T00:17:12.711Z,22.90
2018-12-04T00:19:40.251Z,25.70
2018-12-04T00:22:07.704Z,26.40
2018-12-04T00:24:35.266Z,29.90
2018-12-04T00:27:02.723Z,31.87
2018-12-04T00:29:30.175Z,33.33
2018-12-04T00:31:57.634Z,36.77
2018-12-04T00:34:25.233Z,38.80
2018-12-04T00:36:52.699Z,41.47
2018-12-04T00:39:20.143Z,43.67
2018-12-04T00:41:47.592Z,46.13
2018-12-04T00:44:15.055Z,50.27
2018-12-04T00:46:42.530Z,51.23
2018-12-04T00:49:09.973Z,52.43
2018-12-04T00:51:37.460Z,53.50
2018-12-04T00:54:04.911Z,55.83
2018-12-04T00:56:32.414Z,58.07
2018-12-04T00:58:59.880Z,59.73
2018-12-04T01:01:27.343Z,61.07
2018-12-04T01:03:54.808Z,64.73
2018-12-04T01:06:22.276Z,64.80
2018-12-04T01:08:49.725Z,68.77
2018-12-04T01:11:17.380Z,68.50
2018-12-04T01:13:44.847Z,69.93
2018-12-04T01:16:12.306Z,73.57
2018-12-04T01:18:39.766Z,75.50
2018-12-04T01:21:07.226Z,78.97
2018-12-04T01:23:34.769Z,75.17
2018-12-04T01:26:02.258Z,77.80
2018-12-04T01:28:29.817Z,78.90
2018-12-04T01:30:57.251Z,80.50
2018-12-04T01:33:24.713Z,86.30
2018-12-04T01:35:52.302Z,85.00
2018-12-04T01:38:19.861Z,88.83
2018-12-04T01:40:47.349Z,87.37
2018-12-04T01:43:14.811Z,91.47
2018-12-04T01:45:42.283Z,96.60
2018-12-04T01:48:09.743Z,95.70
2018-12-04T01:50:37.202Z,94.10
2018-12-04T01:53:04.769Z,96.47
2018-12-04T01:55:32.297Z,97.40
2018-12-04T01:57:59.836Z,94.67
2018-12-04T02:00:27.297Z,99.37
2018-12-04T02:02:54.763Z,106.53
2018-12-04T02:05:24.037Z,104.70
2018-12-04T02:07:51.595Z,107.50
2018-12-04T02:10:19.046Z,104.67
2018-12-04T02:12:46.523Z,104.83
2018-12-04T02:15:13.979Z,106.17
2018-12-04T02:17:41.436Z,109.57
2018-12-04T02:20:08.904Z,107.60
2018-12-04T02:22:36.359Z,112.37
2018-12-04T02:25:03.839Z,102.17
2018-12-04T02:27:31.294Z,105.90
2018-12-04T02:29:58.752Z,105.77
2018-12-04T02:32:26.218Z,103.97
2018-12-04T02:34:53.682Z,106.87
2018-12-04T02:37:21.147Z,112.87
2018-12-04T02:39:48.596Z,110.50
2018-12-04T02:42:17.964Z,117.83
2018-12-04T02:44:45.419Z,113.43
2018-12-04T02:47:12.884Z,109.37
2018-12-04T02:49:40.367Z,110.30
2018-12-04T02:52:07.836Z,113.23
2018-12-04T02:54:35.285Z,106.07
2018-12-04T02:57:02.834Z,103.07
2018-12-04T02:59:30.309Z,113.10
2018-12-04T03:01:57.764Z,113.87
2018-12-04T03:04:25.239Z,113.87
2018-12-04T03:06:52.695Z,115.57
2018-12-04T03:09:20.145Z,104.07
2018-12-04T03:11:47.607Z,105.83
2018-12-04T03:14:15.069Z,105.57
2018-12-04T03:16:42.584Z,97.03
2018-12-04T03:19:10.038Z,98.23
2018-12-04T03:21:37.496Z,105.07
2018-12-04T03:24:04.957Z,100.97
2018-12-04T03:26:32.408Z,99.17
2018-12-04T03:28:59.867Z,94.50
2018-12-04T03:31:27.338Z,92.67
2018-12-04T03:33:54.887Z,86.83
2018-12-04T03:36:22.409Z,82.37
2018-12-04T03:38:49.871Z,92.10
2018-12-04T03:41:17.404Z,82.87
2018-12-04T03:43:44.862Z,78.63
2018-12-04T03:46:12.307Z,84.83
2018-12-04T03:48:39.751Z,86.07
2018-12-04T03:51:07.195Z,80.80
2018-12-04T03:53:34.663Z,79.77
2018-12-04T03:56:02.112Z,78.20
2018-12-04T03:58:29.563Z,74.93
2018-12-04T04:00:57.010Z,73.03
2018-12-04T04:03:24.478Z,73.10
2018-12-04T04:05:51.961Z,67.47
2018-12-04T04:08:19.520Z,70.23
2018-12-04T04:10:46.975Z,67.27
2018-12-04T04:13:14.559Z,64.27
2018-12-04T04:15:42.019Z,62.83
2018-12-04T04:18:09.556Z,63.50
2018-12-04T04:20:37.013Z,61.93
2018-12-04T04:23:04.463Z,57.83
2018-12-04T04:25:32.000Z,57.60
2018-12-04T04:27:59.459Z,56.47
2018-12-04T04:30:26.919Z,53.93
2018-12-04T04:32:54.388Z,52.13
2018-12-04T04:35:21.853Z,51.30
2018-12-04T04:37:49.380Z,51.27
2018-12-04T04:40:16.845Z,46.50
2018-12-04T04:42:44.315Z,48.70
2018-12-04T04:45:11.763Z,43.00
2018-12-04T04:47:39.283Z,42.67
2018-12-04T04:50:06.727Z,43.67
2018-12-04T04:52:34.361Z,41.03
2018-12-04T04:55:01.932Z,41.80
2018-12-04T04:57:29.480Z,39.50
2018-12-04T04:59:56.935Z,37.60
2018-12-04T05:02:24.501Z,37.30
2018-12-04T05:04:52.027Z,37.33
2018-12-04T05:07:19.623Z,34.40
2018-12-04T05:09:47.075Z,32.23
2018-12-04T05:12:14.524Z,33.07
2018-12-04T05:14:42.100Z,33.23
2018-12-04T05:17:09.661Z,30.87
2018-12-04T05:19:37.105Z,29.53
2018-12-04T05:22:05.007Z,27.10
2018-12-04T05:24:32.439Z,27.50
2018-12-04T05:26:59.996Z,26.13
2018-12-04T05:29:27.459Z,25.70
2018-12-04T05:31:54.912Z,24.80
2018-12-04T05:34:22.368Z,23.10
2018-12-04T05:36:49.807Z,21.20
2018-12-04T05:39:17.496Z,21.83
2018-12-04T05:41:44.949Z,20.93
2018-12-04T05:44:12.394Z,19.93
2018-12-04T05:46:41.554Z,19.50
2018-12-04T05:49:08.985Z,19.13
2018-12-04T05:51:36.443Z,17.73
2018-12-04T05:54:03.896Z,16.77
2018-12-04T05:56:31.351Z,16.70
2018-12-04T05:58:58.810Z,14.90
2018-12-04T06:01:26.246Z,14.70
2018-12-04T06:03:53.675Z,14.40
2018-12-04T06:06:21.132Z,13.77
2018-12-04T06:08:48.585Z,13.13
2018-12-04T06:11:16.306Z,12.47
2018-12-04T06:13:43.756Z,12.00
2018-12-04T06:16:11.232Z,11.27
2018-12-04T06:18:38.782Z,11.03
2018-12-04T06:21:06.332Z,10.50
2018-12-04T06:23:33.783Z,9.90
2018-12-04T06:26:01.219Z,9.80
2018-12-04T06:28:28.669Z,9.10
2018-12-04T06:30:56.114Z,9.20
2018-12-04T06:33:23.587Z,8.30
2018-12-04T06:35:51.029Z,7.90
2018-12-04T06:38:18.479Z,6.93
2018-12-04T06:40:45.935Z,7.07
2018-12-04T06:43:13.362Z,6.80
2018-12-04T06:45:40.819Z,6.40
2018-12-04T06:48:08.352Z,6.00
2018-12-04T06:50:35.790Z,6.37
2018-12-04T06:53:03.311Z,5.50
2018-12-04T06:55:30.765Z,5.10
2018-12-04T06:57:58.203Z,5.00
2018-12-04T07:00:25.651Z,4.90
2018-12-04T07:02:53.099Z,4.80
2018-12-04T07:05:20.626Z,4.63
2018-12-04T07:07:48.043Z,4.20
2018-12-04T07:10:15.504Z,4.23
2018-12-04T07:12:42.936Z,3.70
2018-12-04T07:15:10.380Z,3.83
2018-12-04T07:17:37.829Z,3.40
2018-12-04T07:20:06.012Z,3.40
2018-12-04T07:22:33.491Z,3.40
2018-12-04T07:25:00.936Z,3.13
2018-12-04T07:27:28.507Z,3.00
2018-12-04T07:29:55.951Z,2.83
2018-12-04T07:32:23.404Z,2.80
2018-12-04T07:34:50.867Z,2.93
2018-12-04T07:37:18.479Z,2.60
2018-12-04T07:39:45.957Z,2.73
2018-12-04T07:42:13.456Z,2.50
2018-12-04T07:44:40.910Z,2.50
2018-12-04T07:47:08.363Z,2.47
2018-12-04T07:49:35.923Z,2.33
2018-12-04T07:52:03.433Z,2.30
2018-12-04T07:54:30.941Z,2.40
2018-12-04T07:56:58.462Z,2.10
2018-12-04T07:59:25.987Z,2.20
2018-12-04T08:01:53.442Z,2.00
2018-12-04T08:04:20.883Z,2.30
2018-12-04T08:06:48.924Z,2.30
2018-12-04T08:09:16.352Z,2.10
2018-12-04T08:11:43.816Z,2.10
2018-12-04T08:14:11.295Z,2.20
2018-12-04T08:16:38.743Z,2.00
2018-12-04T08:19:06.202Z,2.00
2018-12-04T08:21:33.637Z,2.00
2018-12-04T08:24:01.231Z,2.00
2018-12-04T08:26:28.692Z,1.73
2018-12-04T08:28:56.194Z,1.80
2018-12-04T08:31:23.758Z,1.97
2018-12-04T08:33:51.216Z,1.90
2018-12-04T08:36:18.719Z,1.67
2018-12-04T08:38:46.277Z,1.70
2018-12-04T08:41:13.719Z,1.90
2018-12-04T08:43:41.208Z,1.63
2018-12-04T08:46:08.738Z,1.83
2018-12-04T08:48:36.195Z,1.70
2018-12-04T08:51:03.642Z,1.70
2018-12-04T08:53:31.103Z,2.00
2018-12-04T08:55:58.541Z,1.60
2018-12-04T08:58:25.982Z,1.63
2018-12-04T09:00:53.483Z,1.53
2018-12-04T09:03:21.073Z,1.73
2018-12-04T09:05:48.533Z,1.73
2018-12-04T09:08:16.036Z,1.80
2018-12-04T09:10:43.671Z,1.50
2018-12-04T09:13:11.117Z,1.57
2018-12-04T09:15:38.579Z,2.00
2018-12-04T09:18:06.036Z,1.83
2018-12-04T09:20:33.475Z,2.00
2018-12-04T09:23:01.070Z,1.60
2018-12-04T09:25:28.587Z,1.70
2018-12-04T09:27:56.106Z,1.70
2018-12-04T09:30:23.647Z,1.93
2018-12-04T09:32:51.159Z,1.60
2018-12-04T09:35:18.615Z,1.90
2018-12-04T09:37:46.067Z,1.77
2018-12-04T09:40:13.629Z,1.80
2018-12-04T09:42:41.214Z,1.80
2018-12-04T09:45:08.659Z,2.10
2018-12-04T09:47:36.369Z,1.97
2018-12-04T09:50:05.025Z,1.90
2018-12-04T09:52:32.479Z,1.90
2018-12-04T09:54:59.919Z,1.80
2018-12-04T09:57:27.366Z,1.70
2018-12-04T09:59:54.835Z,1.60
2018-12-04T10:02:22.292Z,1.60
2018-12-04T10:04:49.767Z,1.97
2018-12-04T10:07:17.276Z,1.73
2018-12-04T10:09:44.726Z,1.83
2018-12-04T10:12:12.182Z,3.50
2018-12-04T10:14:39.730Z,6.30
2018-12-04T10:17:07.163Z,7.23
2018-12-04T10:19:34.615Z,7.80
2018-12-04T10:22:02.055Z,6.70
2018-12-04T10:24:29.503Z,6.77
2018-12-04T10:26:57.257Z,6.43
2018-12-04T10:29:25.119Z,5.73
2018-12-04T10:31:55.964Z,5.80
2018-12-04T10:34:22.123Z,5.70
2018-12-04T10:36:49.584Z,6.20
2018-12-04T10:39:17.301Z,5.73
2018-12-04T10:41:44.824Z,5.93
2018-12-04T10:44:12.276Z,5.40
2018-12-04T10:46:39.791Z,5.30
2018-12-04T10:49:07.239Z,5.57
2018-12-04T10:51:34.707Z,5.97
2018-12-04T10:54:02.216Z,5.90
2018-12-04T10:56:29.673Z,5.23
2018-12-04T10:58:57.126Z,5.47
2018-12-04T11:01:26.478Z,5.20
2018-12-04T11:03:53.919Z,5.20
2018-12-04T11:06:21.362Z,5.20
2018-12-04T11:08:48.808Z,5.00
2018-12-04T11:11:16.274Z,6.47
2018-12-04T11:13:43.809Z,5.73
2018-12-04T11:16:11.266Z,5.85
2018-12-04T11:18:38.705Z,5.13
2018-12-04T11:21:06.178Z,6.37
2018-12-04T11:23:33.635Z,5.50
2018-12-04T11:26:01.069Z,6.33
2018-12-04T11:28:28.523Z,5.30
2018-12-04T11:30:55.964Z,8.53
2018-12-04T11:33:23.571Z,7.97
2018-12-04T11:35:50.996Z,8.50
2018-12-04T11:38:18.419Z,9.85
2018-12-04T11:40:45.988Z,7.58
2018-12-04T11:43:13.416Z,5.93
2018-12-04T11:45:40.855Z,6.20
2018-12-04T11:48:08.332Z,5.90
2018-12-04T11:50:35.792Z,5.53
2018-12-04T11:53:03.235Z,5.33
2018-12-04T11:55:30.696Z,5.70
2018-12-04T11:57:58.156Z,6.00
2018-12-04T12:00:27.646Z,5.80
2018-12-04T12:02:55.100Z,5.27
2018-12-04T12:05:22.592Z,6.43
2018-12-04T12:07:50.155Z,6.03
2018-12-04T12:10:17.596Z,5.97
2018-12-04T12:12:45.088Z,5.10
2018-12-04T12:15:17.905Z,5.10
2018-12-04T12:17:42.439Z,4.93
2018-12-04T12:20:09.880Z,4.97
2018-12-04T12:22:37.341Z,4.50
2018-12-04T12:25:05.115Z,4.57
2018-12-04T12:27:32.587Z,5.23
2018-12-04T12:30:00.019Z,4.80
2018-12-04T12:32:27.471Z,4.10
2018-12-04T12:34:54.939Z,4.13
2018-12-04T12:37:22.399Z,4.70
2018-12-04T12:39:49.858Z,5.20
2018-12-04T12:42:17.320Z,5.00
2018-12-04T12:44:44.760Z,4.60
2018-12-04T12:47:12.221Z,4.30
2018-12-04T12:49:39.897Z,4.77
2018-12-04T12:52:07.315Z,4.90
2018-12-04T12:54:34.766Z,5.27
2018-12-04T12:57:02.229Z,4.57
2018-12-04T12:59:29.751Z,4.70
2018-12-04T13:01:57.203Z,4.50
2018-12-04T13:04:24.662Z,4.27
2018-12-04T13:06:52.133Z,4.37
2018-12-04T13:09:19.613Z,4.83
2018-12-04T13:11:47.063Z,4.13
2018-12-04T13:14:14.515Z,4.57
2018-12-04T13:16:42.039Z,4.03
2018-12-04T13:19:09.474Z,3.90
2018-12-04T13:21:36.946Z,5.00
2018-12-04T13:24:04.396Z,4.47
2018-12-04T13:26:31.839Z,4.20
2018-12-04T13:28:59.305Z,4.13
2018-12-04T13:31:26.831Z,3.90
2018-12-04T13:33:54.296Z,3.73
2018-12-04T13:36:21.826Z,4.53
2018-12-04T13:38:49.353Z,4.63
2018-12-04T13:41:16.796Z,4.23
2018-12-04T13:43:44.335Z,4.70
2018-12-04T13:46:11.867Z,3.80
2018-12-04T13:48:39.433Z,4.03
2018-12-04T13:51:06.967Z,3.83
2018-12-04T13:53:34.482Z,3.97
2018-12-04T13:56:02.020Z,3.73
2018-12-04T13:58:29.548Z,3.83
2018-12-04T14:00:56.992Z,3.73
2018-12-04T14:03:24.455Z,4.00
2018-12-04T14:05:52.616Z,3.60
2018-12-04T14:08:20.255Z,3.93
2018-12-04T14:10:47.726Z,4.43
2018-12-04T14:13:15.390Z,4.57
2018-12-04T14:15:42.879Z,5.23
2018-12-04T14:18:10.351Z,3.97
2018-12-04T14:20:37.997Z,3.53
2018-12-04T14:23:05.529Z,3.27
2018-12-04T14:25:32.977Z,3.63
2018-12-04T14:28:00.511Z,4.30
2018-12-04T14:30:28.112Z,3.43
2018-12-04T14:32:55.610Z,3.40
2018-12-04T14:35:23.140Z,3.53
2018-12-04T14:37:50.820Z,3.50
2018-12-04T14:40:18.304Z,3.97
2018-12-04T14:42:45.864Z,3.70
2018-12-04T14:45:13.493Z,3.40
2018-12-04T14:47:41.086Z,4.13
2018-12-04T14:50:08.771Z,4.23
2018-12-04T14:52:36.219Z,4.00
2018-12-04T14:55:03.809Z,4.00
2018-12-04T14:57:31.292Z,3.60
2018-12-04T14:59:58.744Z,3.50
2018-12-04T15:02:26.256Z,3.80
2018-12-04T15:04:53.892Z,3.87
2018-12-04T15:07:21.433Z,3.43
2018-12-04T15:09:48.950Z,4.07
2018-12-04T15:12:16.489Z,4.10
2018-12-04T15:14:44.041Z,3.43
2018-12-04T15:17:11.603Z,3.80
2018-12-04T15:19:40.163Z,3.40
2018-12-04T15:22:07.683Z,3.77
2018-12-04T15:24:35.338Z,3.50
2018-12-04T15:27:02.897Z,3.40
2018-12-04T15:29:30.344Z,3.73
2018-12-04T15:31:57.799Z,4.17
2018-12-04T15:34:25.348Z,3.37
2018-12-04T15:36:56.496Z,4.10
2018-12-04T15:39:22.372Z,3.63
2018-12-04T15:41:50.103Z,3.63
2018-12-04T15:44:17.639Z,3.93
2018-12-04T15:46:45.268Z,3.30
2018-12-04T15:49:12.822Z,4.23
2018-12-04T15:51:40.325Z,4.60
2018-12-04T15:54:07.786Z,5.13
2018-12-04T15:56:35.350Z,4.87
2018-12-04T15:59:02.798Z,4.20
2018-12-04T16:01:30.316Z,4.30
2018-12-04T16:03:57.833Z,4.83
2018-12-04T16:06:25.287Z,4.90
2018-12-04T16:08:52.740Z,5.37
2018-12-04T16:11:20.203Z,4.77
2018-12-04T16:13:47.691Z,5.10
2018-12-04T16:16:15.158Z,5.50
2018-12-04T16:18:42.600Z,5.27
2018-12-04T16:21:10.102Z,4.63
2018-12-04T16:23:37.579Z,5.13
2018-12-04T16:26:05.054Z,5.07
2018-12-04T16:28:32.613Z,4.87
2018-12-04T16:31:00.028Z,4.50
2018-12-04T16:33:27.526Z,5.00
2018-12-04T16:35:54.988Z,5.33
2018-12-04T16:38:22.456Z,4.57
2018-12-04T16:40:50.102Z,4.80
2018-12-04T16:43:17.543Z,4.80
2018-12-04T16:45:45.068Z,4.73
2018-12-04T16:48:12.543Z,4.63
2018-12-04T16:50:40.013Z,4.47
2018-12-04T16:53:08.231Z,4.23
2018-12-04T16:55:35.819Z,4.70
2018-12-04T16:58:03.374Z,4.37
2018-12-04T17:00:31.056Z,4.60
2018-12-04T17:02:58.578Z,4.20
2018-12-04T17:05:26.110Z,4.50
2018-12-04T17:07:53.593Z,4.23
2018-12-04T17:10:22.575Z,3.73
2018-12-04T17:12:50.531Z,4.10
2018-12-04T17:15:18.085Z,3.70
2018-12-04T17:17:45.531Z,3.37
2018-12-04T17:20:12.975Z,3.77
2018-12-04T17:22:40.440Z,4.03
2018-12-04T17:25:07.908Z,3.80
2018-12-04T17:27:35.459Z,3.50
2018-12-04T17:30:02.967Z,3.60
2018-12-04T17:32:31.319Z,3.53
2018-12-04T17:34:58.915Z,3.83
2018-12-04T17:37:26.500Z,3.60
2018-12-04T17:39:54.130Z,3.33
2018-12-04T17:42:21.843Z,3.27
2018-12-04T17:44:49.375Z,3.90
2018-12-04T17:47:16.851Z,3.20
2018-12-04T17:49:44.375Z,3.13
2018-12-04T17:52:11.886Z,3.53
2018-12-04T17:54:39.890Z,3.23
2018-12-04T17:57:07.608Z,3.23
2018-12-04T17:59:37.406Z,3.30
2018-12-04T18:02:05.309Z,3.30
2018-12-04T18:04:32.968Z,3.53
2018-12-04T18:07:00.400Z,3.47
2018-12-04T18:09:27.856Z,2.87
2018-12-04T18:11:55.325Z,3.37
2018-12-04T18:14:22.776Z,3.40
2018-12-04T18:16:50.227Z,2.97
2018-12-04T18:19:17.680Z,3.57
2018-12-04T18:21:45.169Z,3.00
2018-12-04T18:55:11.852Z,2.50
2018-12-04T18:57:39.412Z,3.40
2018-12-04T19:00:08.507Z,3.07
2018-12-04T19:02:36.084Z,2.63
2018-12-04T19:05:04.148Z,2.80
2018-12-04T19:07:31.621Z,2.90
2018-12-04T19:09:59.248Z,2.60
2018-12-04T19:12:26.691Z,3.07
2018-12-04T19:14:54.892Z,2.60
2018-12-04T19:17:22.442Z,2.63
2018-12-04T19:19:50.148Z,2.20
2018-12-04T19:22:17.678Z,2.67
2018-12-04T19:24:45.119Z,2.33
2018-12-04T19:27:12.590Z,2.20
2018-12-04T19:29:40.072Z,2.50
2018-12-04T19:32:07.613Z,2.17
2018-12-04T19:34:35.059Z,2.40
2018-12-04T19:37:02.833Z,2.77
2018-12-04T19:39:30.279Z,2.47
2018-12-04T19:41:57.747Z,2.20
2018-12-04T19:44:25.221Z,2.27
2018-12-04T19:46:52.647Z,2.20
2018-12-04T19:49:20.098Z,2.27
2018-12-04T19:51:47.559Z,2.50
2018-12-04T19:54:15.098Z,2.40
2018-12-04T19:56:42.686Z,2.87
2018-12-04T19:59:10.148Z,2.03
2018-12-04T20:01:37.603Z,2.20
2018-12-04T20:04:05.070Z,2.00
2018-12-04T20:06:32.789Z,2.70
2018-12-04T20:09:00.208Z,2.20
2018-12-04T20:11:27.696Z,2.33
2018-12-04T20:13:55.131Z,2.20
2018-12-04T20:16:22.573Z,2.20
2018-12-04T20:18:50.119Z,2.27
2018-12-04T20:21:17.556Z,2.10
2018-12-04T20:23:45.002Z,2.17
2018-12-04T20:26:12.460Z,2.13
2018-12-04T20:28:39.915Z,2.33
2018-12-04T20:31:07.413Z,2.20
2018-12-04T20:33:34.910Z,2.40
2018-12-04T20:36:02.478Z,2.23
2018-12-04T20:38:30.131Z,1.80
2018-12-04T20:40:57.596Z,2.00
2018-12-04T20:43:25.098Z,2.20
2018-12-04T20:45:52.677Z,1.87
2018-12-04T20:48:20.223Z,2.10
2018-12-04T20:50:47.776Z,2.10
2018-12-04T20:53:15.348Z,1.93
2018-12-04T20:55:42.812Z,1.90
2018-12-04T20:58:10.260Z,1.73
2018-12-04T21:00:37.701Z,2.13
2018-12-04T21:03:05.198Z,2.10
2018-12-04T21:05:32.675Z,1.97
2018-12-04T21:08:00.250Z,2.40
2018-12-04T21:10:27.681Z,1.63
2018-12-04T21:12:55.126Z,1.93
2018-12-04T21:15:22.645Z,1.83
2018-12-04T21:17:50.096Z,2.00
2018-12-04T21:20:17.671Z,1.90
2018-12-04T21:22:45.224Z,1.70
2018-12-04T21:25:12.716Z,1.87
2018-12-04T21:27:46.087Z,1.80
2018-12-04T21:30:19.296Z,2.07
2018-12-04T21:32:52.402Z,2.10
2018-12-04T21:35:25.693Z,2.10
2018-12-04T21:37:58.799Z,1.90
2018-12-04T21:40:32.040Z,1.80
2018-12-04T21:43:05.258Z,1.60
2018-12-04T21:45:38.498Z,1.90
2018-12-04T21:48:07.415Z,1.70
2018-12-04T21:50:34.859Z,1.93
2018-12-04T21:53:02.341Z,1.90
2018-12-04T21:55:29.931Z,1.80
2018-12-04T21:57:57.366Z,1.90
2018-12-04T22:00:24.915Z,1.70
2018-12-04T22:02:52.507Z,1.50
2018-12-04T22:05:20.052Z,1.50
2018-12-04T22:07:47.592Z,1.37
2018-12-04T22:10:15.050Z,1.93
2018-12-04T22:12:42.496Z,1.73
2018-12-04T22:15:09.959Z,1.60
2018-12-04T22:17:37.423Z,1.80
2018-12-04T22:20:05.964Z,1.50
2018-12-04T22:22:33.444Z,1.57
2018-12-04T22:25:00.919Z,1.63
2018-12-04T22:27:28.382Z,1.70
2018-12-04T22:29:55.814Z,1.50
2018-12-04T22:32:23.283Z,1.43
2018-12-04T22:34:50.743Z,1.87
2018-12-04T22:37:18.207Z,1.57
2018-12-04T22:39:45.668Z,1.30
2018-12-04T22:42:13.134Z,1.40
2018-12-04T22:44:40.582Z,1.30
2018-12-04T22:47:08.040Z,1.50
2018-12-04T22:49:35.487Z,1.50
2018-12-04T22:52:03.051Z,1.70
2018-12-04T22:54:30.538Z,1.47
2018-12-04T22:56:58.067Z,1.50
2018-12-04T22:59:25.515Z,1.50
2018-12-04T23:01:52.980Z,1.60
2018-12-04T23:04:20.438Z,1.73
2018-12-04T23:06:47.895Z,1.60
2018-12-04T23:09:15.360Z,1.43
2018-12-04T23:11:42.911Z,1.40
2018-12-04T23:14:10.371Z,1.57
2018-12-04T23:16:38.044Z,1.40
2018-12-04T23:19:05.637Z,1.30
2018-12-04T23:21:33.051Z,1.30
2018-12-04T23:24:00.508Z,1.30
2018-12-04T23:26:28.040Z,1.30
2018-12-04T23:28:55.496Z,1.50
2018-12-04T23:31:22.998Z,1.60
2018-12-04T23:33:50.544Z,1.20
2018-12-04T23:36:18.000Z,1.47
2018-12-04T23:38:45.448Z,1.50
2018-12-04T23:41:12.937Z,1.30
2018-12-04T23:43:40.392Z,1.67
2018-12-04T23:46:07.828Z,1.40
2018-12-04T23:48:35.284Z,1.30
2018-12-04T23:51:02.746Z,1.33
2018-12-04T23:53:30.197Z,1.40
2018-12-04T23:55:57.668Z,1.80
2018-12-04T23:58:25.107Z,1.30
